createdAt,value
2022-07-31T00:00:56.741Z,29.59
2022-07-31T00:03:25.522Z,29.58
2022-07-31T00:05:54.599Z,29.56
2022-07-31T00:08:24.340Z,29.57
2022-07-31T00:10:53.099Z,29.56
2022-07-31T00:13:58.109Z,29.55
2022-07-31T00:16:13.665Z,29.52
2022-07-31T00:18:45.905Z,29.52
2022-07-31T00:21:15.155Z,29.50
2022-07-31T00:23:43.691Z,29.48
2022-07-31T00:26:12.254Z,29.49
2022-07-31T00:28:40.862Z,29.46
2022-07-31T00:31:09.433Z,29.46
2022-07-31T00:33:39.447Z,29.45
2022-07-31T00:36:08.847Z,29.42
2022-07-31T00:38:37.349Z,29.41
2022-07-31T00:41:05.979Z,29.38
2022-07-31T00:43:34.524Z,29.37
2022-07-31T00:46:04.055Z,29.36
2022-07-31T00:48:33.276Z,29.33
2022-07-31T00:51:04.236Z,29.32
2022-07-31T00:53:32.922Z,29.30
2022-07-31T00:56:01.474Z,29.30
2022-07-31T00:58:30.215Z,29.28
2022-07-31T01:00:58.890Z,29.27
2022-07-31T01:03:27.509Z,29.25
2022-07-31T01:05:56.129Z,29.23
2022-07-31T01:08:26.246Z,29.22
2022-07-31T01:11:03.276Z,29.20
2022-07-31T01:13:46.418Z,29.17
2022-07-31T01:16:16.008Z,29.15
2022-07-31T01:18:46.161Z,29.13
2022-07-31T01:21:23.702Z,29.10
2022-07-31T01:24:31.667Z,29.06
2022-07-31T01:27:28.660Z,29.04
2022-07-31T01:30:03.421Z,29.02
2022-07-31T01:32:39.205Z,29.01
2022-07-31T01:35:17.470Z,29.01
2022-07-31T01:37:50.826Z,28.99
2022-07-31T01:40:27.776Z,28.96
2022-07-31T01:43:03.559Z,28.93
2022-07-31T01:45:35.811Z,28.91
2022-07-31T01:48:06.586Z,28.90
2022-07-31T01:50:43.109Z,28.86
2022-07-31T01:53:15.888Z,28.84
2022-07-31T01:55:56.379Z,28.81
2022-07-31T01:58:37.502Z,28.79
2022-07-31T02:01:13.773Z,28.77
2022-07-31T02:03:45.746Z,28.76
2022-07-31T02:06:20.486Z,28.75
2022-07-31T02:08:52.650Z,28.74
2022-07-31T02:11:22.822Z,28.73
2022-07-31T02:13:53.323Z,28.71
2022-07-31T02:16:26.219Z,28.71
2022-07-31T02:19:05.270Z,28.70
2022-07-31T02:21:34.184Z,28.69
2022-07-31T02:24:02.733Z,28.68
2022-07-31T02:26:33.587Z,28.70
2022-07-31T02:29:03.953Z,28.67
2022-07-31T02:31:35.556Z,28.66
2022-07-31T02:34:04.144Z,28.64
2022-07-31T02:36:35.842Z,28.63
2022-07-31T02:39:06.262Z,28.62
2022-07-31T02:41:36.509Z,28.61
2022-07-31T02:44:05.964Z,28.58
2022-07-31T02:46:37.944Z,28.58
2022-07-31T02:49:08.583Z,28.56
2022-07-31T02:51:42.883Z,28.57
2022-07-31T02:54:12.669Z,28.53
2022-07-31T02:56:43.163Z,28.52
2022-07-31T02:59:11.751Z,28.50
2022-07-31T03:02:01.574Z,28.47
2022-07-31T03:04:32.538Z,28.45
2022-07-31T03:07:01.477Z,28.44
2022-07-31T03:09:30.743Z,28.42
2022-07-31T03:12:19.319Z,28.39
2022-07-31T03:14:48.485Z,28.38
2022-07-31T03:17:18.606Z,28.38
2022-07-31T03:19:49.449Z,28.34
2022-07-31T03:22:18.548Z,28.33
2022-07-31T03:24:47.275Z,28.31
2022-07-31T03:27:16.269Z,28.30
2022-07-31T03:29:44.956Z,28.27
2022-07-31T03:32:13.485Z,28.26
2022-07-31T03:34:43.426Z,28.25
2022-07-31T03:37:12.124Z,28.21
2022-07-31T03:39:40.996Z,28.22
2022-07-31T03:42:19.177Z,28.20
2022-07-31T03:44:49.818Z,28.18
2022-07-31T03:47:19.405Z,28.17
2022-07-31T03:49:50.679Z,28.17
2022-07-31T03:52:19.361Z,28.17
2022-07-31T03:54:48.774Z,28.16
2022-07-31T03:57:21.957Z,28.14
2022-07-31T03:59:58.113Z,28.13
2022-07-31T04:02:29.961Z,28.10
2022-07-31T04:05:22.139Z,28.07
2022-07-31T04:07:50.803Z,28.07
2022-07-31T04:10:21.302Z,28.05
2022-07-31T04:12:50.217Z,28.05
2022-07-31T04:15:19.303Z,28.03
2022-07-31T04:17:49.280Z,28.05
2022-07-31T04:20:24.386Z,28.04
2022-07-31T04:22:52.934Z,28.05
2022-07-31T04:25:53.475Z,28.04
2022-07-31T04:28:30.919Z,28.05
2022-07-31T04:30:59.514Z,28.03
2022-07-31T04:33:28.204Z,28.02
2022-07-31T04:35:58.073Z,28.03
2022-07-31T04:38:26.643Z,28.02
2022-07-31T04:40:55.438Z,28.04
2022-07-31T04:43:24.080Z,28.03
2022-07-31T04:45:52.643Z,28.03
2022-07-31T04:48:21.539Z,28.02
2022-07-31T04:50:50.177Z,28.02
2022-07-31T04:53:20.322Z,28.03
2022-07-31T04:56:04.092Z,28.02
2022-07-31T04:58:35.095Z,28.03
2022-07-31T05:01:04.262Z,28.04
2022-07-31T05:03:32.992Z,28.03
2022-07-31T05:06:11.392Z,28.05
2022-07-31T05:08:42.318Z,28.06
2022-07-31T05:11:26.069Z,28.05
2022-07-31T05:13:57.828Z,28.05
2022-07-31T05:16:28.411Z,28.05
2022-07-31T05:18:58.003Z,28.05
2022-07-31T05:21:53.163Z,28.05
2022-07-31T05:24:32.574Z,28.07
2022-07-31T05:27:22.593Z,28.06
2022-07-31T05:29:51.158Z,28.09
2022-07-31T05:32:19.783Z,28.10
2022-07-31T05:34:48.632Z,28.10
2022-07-31T05:37:17.281Z,28.11
2022-07-31T05:39:47.956Z,28.13
2022-07-31T05:42:35.271Z,28.11
2022-07-31T05:45:24.151Z,28.12
2022-07-31T05:47:53.259Z,28.12
2022-07-31T05:50:22.265Z,28.13
2022-07-31T05:52:50.865Z,28.15
2022-07-31T05:55:38.827Z,28.15
2022-07-31T05:58:21.416Z,28.13
2022-07-31T06:00:51.320Z,28.12
2022-07-31T06:03:25.314Z,28.13
2022-07-31T06:06:05.467Z,28.12
2022-07-31T06:08:34.537Z,28.12
2022-07-31T06:11:07.165Z,28.13
2022-07-31T06:13:35.761Z,28.14
2022-07-31T06:16:16.966Z,28.11
2022-07-31T06:18:45.533Z,28.10
2022-07-31T06:23:44.582Z,28.08
2022-07-31T06:26:34.172Z,28.08
2022-07-31T06:29:03.743Z,28.08
2022-07-31T06:31:32.555Z,28.09
2022-07-31T06:34:01.496Z,28.10
2022-07-31T06:36:39.140Z,28.10
2022-07-31T06:39:10.573Z,28.11
2022-07-31T06:42:09.696Z,28.10
2022-07-31T06:44:45.800Z,28.10
2022-07-31T06:47:23.897Z,28.12
2022-07-31T06:49:53.171Z,28.11
2022-07-31T06:52:22.163Z,28.11
2022-07-31T06:54:51.138Z,28.13
2022-07-31T06:57:21.499Z,28.14
2022-07-31T06:59:50.091Z,28.14
2022-07-31T07:02:18.866Z,28.15
2022-07-31T07:05:04.814Z,28.17
2022-07-31T07:07:37.595Z,28.16
2022-07-31T07:10:09.273Z,28.17
2022-07-31T07:12:59.347Z,28.18
2022-07-31T07:15:30.498Z,28.19
2022-07-31T07:17:59.098Z,28.19
2022-07-31T07:20:43.351Z,28.16
2022-07-31T07:23:12.156Z,28.16
2022-07-31T07:25:50.041Z,28.15
2022-07-31T07:28:30.277Z,28.17
2022-07-31T07:31:02.909Z,28.17
2022-07-31T07:33:39.570Z,28.19
2022-07-31T07:36:23.152Z,28.18
2022-07-31T07:38:57.009Z,28.18
2022-07-31T07:41:26.447Z,28.21
2022-07-31T07:43:56.861Z,28.22
2022-07-31T07:46:28.633Z,28.24
2022-07-31T07:48:59.737Z,28.26
2022-07-31T07:51:37.465Z,28.25
2022-07-31T07:54:37.958Z,28.22
2022-07-31T07:57:25.268Z,28.22
2022-07-31T08:00:16.199Z,28.24
2022-07-31T08:03:47.566Z,28.24
2022-07-31T08:05:37.047Z,28.24
2022-07-31T08:08:06.007Z,28.27
2022-07-31T08:10:57.425Z,28.29
2022-07-31T08:13:49.330Z,28.29
2022-07-31T08:16:40.821Z,28.29
2022-07-31T08:19:10.213Z,28.32
2022-07-31T08:21:39.372Z,28.33
2022-07-31T08:24:08.667Z,28.35
2022-07-31T08:26:51.215Z,28.35
2022-07-31T08:29:27.258Z,28.35
2022-07-31T08:32:03.470Z,28.36
2022-07-31T08:34:50.951Z,28.35
2022-07-31T08:37:51.692Z,28.38
2022-07-31T08:40:10.729Z,28.38
2022-07-31T08:42:39.693Z,28.39
2022-07-31T08:45:09.853Z,28.41
2022-07-31T08:47:49.337Z,28.41
2022-07-31T08:50:25.918Z,28.40
2022-07-31T08:52:58.595Z,28.41
2022-07-31T08:55:56.655Z,28.41
2022-07-31T08:58:30.050Z,28.38
2022-07-31T09:00:59.246Z,28.38
2022-07-31T09:03:29.528Z,28.38
2022-07-31T09:06:01.015Z,28.38
2022-07-31T09:08:33.042Z,28.38
2022-07-31T09:11:06.420Z,28.38
2022-07-31T09:13:39.504Z,28.37
2022-07-31T09:16:30.924Z,28.37
2022-07-31T09:19:52.327Z,28.38
2022-07-31T09:21:53.657Z,28.38
2022-07-31T09:24:31.136Z,28.42
2022-07-31T09:27:06.864Z,28.44
2022-07-31T09:29:38.591Z,28.46
2022-07-31T09:32:13.589Z,28.50
2022-07-31T09:35:12.291Z,28.51
2022-07-31T09:37:42.522Z,28.52
2022-07-31T09:40:55.272Z,28.52
2022-07-31T09:44:10.220Z,28.53
2022-07-31T09:46:41.183Z,28.55
2022-07-31T09:49:11.262Z,28.58
2022-07-31T09:51:44.634Z,28.61
2022-07-31T09:54:25.711Z,28.61
2022-07-31T09:57:10.641Z,28.61
2022-07-31T09:59:40.455Z,28.63
2022-07-31T10:02:10.494Z,28.64
2022-07-31T10:04:40.062Z,28.66
2022-07-31T10:07:24.449Z,28.68
2022-07-31T10:10:08.545Z,28.66
2022-07-31T10:12:43.983Z,28.68
2022-07-31T10:15:15.419Z,28.71
2022-07-31T10:17:49.003Z,28.73
2022-07-31T10:20:37.227Z,28.74
2022-07-31T10:23:36.040Z,28.76
2022-07-31T10:26:06.127Z,28.79
2022-07-31T10:28:39.194Z,28.83
2022-07-31T10:31:08.435Z,28.85
2022-07-31T10:33:45.283Z,28.90
2022-07-31T10:36:38.187Z,28.92
2022-07-31T10:39:31.513Z,28.93
2022-07-31T10:42:35.090Z,28.97
2022-07-31T10:45:09.462Z,29.01
2022-07-31T10:48:03.102Z,29.03
2022-07-31T10:51:10.321Z,29.04
2022-07-31T10:54:00.602Z,29.09
2022-07-31T10:56:49.662Z,29.13
2022-07-31T10:59:41.680Z,29.17
2022-07-31T11:02:32.707Z,29.19
2022-07-31T11:05:23.770Z,29.25
2022-07-31T11:08:12.549Z,29.28
2022-07-31T11:11:03.958Z,29.30
2022-07-31T11:14:06.273Z,29.29
2022-07-31T11:16:51.347Z,29.30
2022-07-31T11:19:41.821Z,29.30
2022-07-31T11:22:31.607Z,29.35
2022-07-31T11:25:01.761Z,29.34
2022-07-31T11:27:34.309Z,29.36
2022-07-31T11:30:13.398Z,29.38
2022-07-31T11:32:42.619Z,29.36
2022-07-31T11:35:11.380Z,29.39
2022-07-31T11:37:57.081Z,29.41
2022-07-31T11:40:28.536Z,29.43
2022-07-31T11:43:25.243Z,29.44
2022-07-31T11:45:49.681Z,29.46
2022-07-31T11:48:20.962Z,29.47
2022-07-31T11:50:51.215Z,29.46
2022-07-31T11:53:21.237Z,29.47
2022-07-31T11:55:52.612Z,29.50
2022-07-31T11:58:24.270Z,29.51
2022-07-31T12:00:56.421Z,29.53
2022-07-31T12:03:30.604Z,29.53
2022-07-31T12:05:59.775Z,29.55
2022-07-31T12:08:29.570Z,29.57
2022-07-31T12:11:00.869Z,29.60
2022-07-31T12:13:31.520Z,29.59
2022-07-31T12:16:05.110Z,29.61
2022-07-31T12:18:47.318Z,29.58
2022-07-31T12:21:16.705Z,29.59
2022-07-31T12:23:47.500Z,29.60
2022-07-31T12:29:13.920Z,29.58
2022-07-31T12:31:49.179Z,29.58
2022-07-31T12:34:29.063Z,29.59
2022-07-31T12:37:02.825Z,29.59
2022-07-31T12:39:47.756Z,29.60
2022-07-31T12:42:30.913Z,29.61
2022-07-31T12:45:19.185Z,29.61
2022-07-31T12:47:54.881Z,29.63
2022-07-31T12:50:24.070Z,29.66
2022-07-31T12:52:52.935Z,29.72
2022-07-31T12:55:22.568Z,29.77
2022-07-31T12:57:52.183Z,29.82
2022-07-31T13:00:23.107Z,29.87
2022-07-31T13:02:54.169Z,29.91
2022-07-31T13:05:23.763Z,29.95
2022-07-31T13:07:53.161Z,30.01
2022-07-31T13:10:25.026Z,30.04
2022-07-31T13:12:59.409Z,30.07
2022-07-31T13:15:30.535Z,30.12
2022-07-31T13:18:04.035Z,30.15
2022-07-31T13:20:32.815Z,30.17
2022-07-31T13:23:02.814Z,30.19
2022-07-31T13:25:31.689Z,30.21
2022-07-31T13:28:00.437Z,30.20
2022-07-31T13:30:29.388Z,30.22
2022-07-31T13:32:59.458Z,30.22
2022-07-31T13:35:29.223Z,30.22
2022-07-31T13:37:57.999Z,30.22
2022-07-31T13:40:40.739Z,30.22
2022-07-31T13:43:09.498Z,30.22
2022-07-31T13:45:38.529Z,30.23
2022-07-31T13:48:10.025Z,30.25
2022-07-31T13:50:39.625Z,30.25
2022-07-31T13:53:08.518Z,30.29
2022-07-31T13:55:38.341Z,30.31
2022-07-31T13:58:07.526Z,30.32
2022-07-31T14:00:36.720Z,30.34
2022-07-31T14:03:05.318Z,30.35
2022-07-31T14:05:40.286Z,30.37
2022-07-31T14:08:29.731Z,30.36
2022-07-31T14:10:58.110Z,30.36
2022-07-31T14:13:27.067Z,30.36
2022-07-31T14:15:55.757Z,30.39
2022-07-31T14:18:25.095Z,30.40
2022-07-31T14:20:55.019Z,30.42
2022-07-31T14:23:26.375Z,30.42
2022-07-31T14:26:00.209Z,30.42
2022-07-31T14:28:31.198Z,30.41
2022-07-31T14:30:59.840Z,30.40
2022-07-31T14:33:28.455Z,30.42
2022-07-31T14:35:58.502Z,30.40
2022-07-31T14:38:27.904Z,30.38
2022-07-31T14:40:56.720Z,30.38
2022-07-31T14:43:26.071Z,30.38
2022-07-31T14:45:54.883Z,30.41
2022-07-31T14:48:23.490Z,30.45
2022-07-31T14:50:52.138Z,30.46
2022-07-31T14:53:22.112Z,30.48
2022-07-31T14:55:50.849Z,30.50
2022-07-31T14:58:19.517Z,30.52
2022-07-31T15:00:48.275Z,30.50
2022-07-31T15:03:16.977Z,30.53
2022-07-31T15:06:50.773Z,30.53
2022-07-31T15:08:36.285Z,30.51
2022-07-31T15:11:04.912Z,30.51
2022-07-31T15:13:37.280Z,30.50
2022-07-31T15:16:09.391Z,30.50
2022-07-31T15:18:38.012Z,30.51
2022-07-31T15:21:06.579Z,30.53
2022-07-31T15:23:37.354Z,30.59
2022-07-31T15:26:06.201Z,30.64
2022-07-31T15:28:35.536Z,30.70
2022-07-31T15:31:04.345Z,30.76
2022-07-31T15:33:32.971Z,30.84
2022-07-31T15:36:02.448Z,30.90
2022-07-31T15:38:31.029Z,30.94
2022-07-31T15:41:02.131Z,30.98
2022-07-31T15:43:35.143Z,30.96
2022-07-31T15:46:08.743Z,30.98
2022-07-31T15:48:38.754Z,30.99
2022-07-31T15:51:09.253Z,30.98
2022-07-31T15:53:39.464Z,30.97
2022-07-31T15:56:09.636Z,30.97
2022-07-31T15:58:38.276Z,30.94
2022-07-31T16:01:09.031Z,30.92
2022-07-31T16:03:51.177Z,30.87
2022-07-31T16:06:28.176Z,30.81
2022-07-31T16:09:00.761Z,30.70
2022-07-31T16:12:05.145Z,30.64
2022-07-31T16:14:19.177Z,30.58
2022-07-31T16:16:47.728Z,30.56
2022-07-31T16:19:20.188Z,30.52
2022-07-31T16:21:49.035Z,30.51
2022-07-31T16:24:18.196Z,30.49
2022-07-31T16:26:50.599Z,30.48
2022-07-31T16:29:59.832Z,30.47
2022-07-31T16:32:09.928Z,30.45
2022-07-31T16:34:39.736Z,30.44
2022-07-31T16:37:08.560Z,30.44
2022-07-31T16:39:37.054Z,30.45
2022-07-31T16:42:07.631Z,30.44
2022-07-31T16:44:37.196Z,30.43
2022-07-31T16:47:06.783Z,30.43
2022-07-31T16:49:37.281Z,30.40
2022-07-31T16:52:06.905Z,30.40
2022-07-31T16:54:35.549Z,30.36
2022-07-31T16:57:04.691Z,30.34
2022-07-31T16:59:56.384Z,30.32
2022-07-31T17:02:24.842Z,30.26
2022-07-31T17:04:54.176Z,30.26
2022-07-31T17:07:22.841Z,30.25
2022-07-31T17:09:51.807Z,30.25
2022-07-31T17:12:20.754Z,30.24
2022-07-31T17:14:50.872Z,30.23
2022-07-31T17:17:21.576Z,30.22
2022-07-31T17:19:51.716Z,30.22
2022-07-31T17:22:23.745Z,30.20
2022-07-31T17:24:53.000Z,30.20
2022-07-31T17:27:23.155Z,30.18
2022-07-31T17:29:53.239Z,30.15
2022-07-31T17:32:21.890Z,30.10
2022-07-31T17:34:50.436Z,30.06
2022-07-31T17:37:19.185Z,29.97
2022-07-31T17:39:49.280Z,29.83
2022-07-31T17:42:18.167Z,29.67
2022-07-31T17:44:55.759Z,29.53
2022-07-31T17:47:25.861Z,29.43
2022-07-31T17:49:55.134Z,29.30
2022-07-31T17:52:23.854Z,29.15
2022-07-31T17:54:53.677Z,29.01
2022-07-31T17:57:23.715Z,28.93
2022-07-31T17:59:55.456Z,28.91
2022-07-31T18:02:23.963Z,28.89
2022-07-31T18:04:52.546Z,28.89
2022-07-31T18:07:22.790Z,28.89
2022-07-31T18:09:51.735Z,28.89
2022-07-31T18:12:20.288Z,28.89
2022-07-31T18:14:49.650Z,28.89
2022-07-31T18:17:20.676Z,28.91
2022-07-31T18:19:49.636Z,28.90
2022-07-31T18:22:18.220Z,28.89
2022-07-31T18:24:46.850Z,28.88
2022-07-31T18:27:15.508Z,28.86
2022-07-31T18:29:51.566Z,28.87
2022-07-31T18:32:26.521Z,28.87
2022-07-31T18:34:55.030Z,28.83
2022-07-31T18:37:23.704Z,28.82
2022-07-31T18:39:52.421Z,28.81
2022-07-31T18:42:21.204Z,28.80
2022-07-31T18:44:49.851Z,28.81
2022-07-31T18:47:18.585Z,28.82
2022-07-31T18:51:01.113Z,28.82
2022-07-31T18:52:37.508Z,28.81
2022-07-31T18:55:07.644Z,28.82
2022-07-31T18:57:36.597Z,28.84
2022-07-31T19:00:08.959Z,28.89
2022-07-31T19:02:39.094Z,28.91
2022-07-31T19:05:14.919Z,28.95
2022-07-31T19:07:50.911Z,28.98
2022-07-31T19:10:29.633Z,29.00
2022-07-31T19:13:00.832Z,29.02
2022-07-31T19:15:29.649Z,29.03
2022-07-31T19:17:58.852Z,29.05
2022-07-31T19:20:56.126Z,29.05
2022-07-31T19:23:23.093Z,29.04
2022-07-31T19:26:03.958Z,29.03
2022-07-31T19:28:33.382Z,29.03
2022-07-31T19:31:02.416Z,29.03
2022-07-31T19:33:31.051Z,29.01
2022-07-31T19:36:02.960Z,29.00
2022-07-31T19:38:33.997Z,28.97
2022-07-31T19:41:02.945Z,28.93
2022-07-31T19:43:33.030Z,28.93
2022-07-31T19:46:10.280Z,28.92
2022-07-31T19:48:42.085Z,28.91
2022-07-31T19:51:13.329Z,28.91
2022-07-31T19:53:42.220Z,28.89
2022-07-31T19:56:18.114Z,28.87
2022-07-31T19:58:48.506Z,28.88
2022-07-31T20:01:19.983Z,28.87
2022-07-31T20:03:49.142Z,28.82
2022-07-31T20:06:19.403Z,28.81
2022-07-31T20:08:49.090Z,28.78
2022-07-31T20:11:18.340Z,28.75
2022-07-31T20:13:47.054Z,28.74
2022-07-31T20:16:16.190Z,28.74
2022-07-31T20:18:47.118Z,28.74
2022-07-31T20:21:15.895Z,28.73
2022-07-31T20:23:48.829Z,28.74
2022-07-31T20:26:17.866Z,28.71
2022-07-31T20:28:46.545Z,28.67
2022-07-31T20:31:16.277Z,28.68
2022-07-31T20:33:56.728Z,28.63
2022-07-31T20:36:26.914Z,28.61
2022-07-31T20:38:58.915Z,28.61
2022-07-31T20:41:28.291Z,28.61
2022-07-31T20:43:57.304Z,28.62
2022-07-31T20:46:26.019Z,28.63
2022-07-31T20:48:56.176Z,28.63
2022-07-31T20:51:25.256Z,28.63
2022-07-31T20:53:56.308Z,28.62
2022-07-31T20:56:24.910Z,28.60
2022-07-31T20:58:53.835Z,28.59
2022-07-31T21:01:23.015Z,28.57
2022-07-31T21:04:06.529Z,28.57
2022-07-31T21:07:22.191Z,28.56
2022-07-31T21:11:31.557Z,28.49
2022-07-31T21:19:14.953Z,28.35
2022-07-31T21:23:10.900Z,28.28
2022-07-31T21:27:19.738Z,28.21
2022-07-31T21:36:12.063Z,28.18
2022-07-31T21:40:01.107Z,28.14
2022-07-31T21:43:58.662Z,28.13
2022-07-31T21:46:52.035Z,28.09
2022-07-31T21:49:29.576Z,28.11
2022-07-31T21:52:11.142Z,28.11
2022-07-31T21:55:05.584Z,28.14
2022-07-31T21:58:07.519Z,28.13
2022-07-31T22:01:07.609Z,28.12
2022-07-31T22:04:08.923Z,28.12
2022-07-31T22:07:32.156Z,28.09
2022-07-31T22:10:40.991Z,28.07
2022-07-31T22:13:28.379Z,28.09
2022-07-31T22:16:33.642Z,28.11
2022-07-31T22:20:23.495Z,28.11
2022-07-31T22:24:29.114Z,28.10
2022-07-31T22:27:50.505Z,28.10
2022-07-31T22:38:47.904Z,28.03
2022-07-31T22:41:46.101Z,28.02
2022-07-31T22:45:09.144Z,28.01
2022-07-31T22:47:57.622Z,27.99
2022-07-31T22:51:08.555Z,27.96
2022-07-31T22:53:51.827Z,27.91
2022-07-31T22:56:39.290Z,27.91
2022-07-31T22:59:10.268Z,27.89
2022-07-31T23:01:53.894Z,27.89
2022-07-31T23:04:37.640Z,27.88
2022-07-31T23:07:08.182Z,27.86
2022-07-31T23:09:37.191Z,27.86
2022-07-31T23:12:07.141Z,27.85
2022-07-31T23:14:36.040Z,27.84
2022-07-31T23:17:04.892Z,27.83
2022-07-31T23:19:33.478Z,27.83
2022-07-31T23:22:02.287Z,27.83
2022-07-31T23:24:32.639Z,27.82
2022-07-31T23:27:01.138Z,27.80
2022-07-31T23:29:29.682Z,27.79
2022-07-31T23:31:58.427Z,27.76
2022-07-31T23:34:26.921Z,27.74
2022-07-31T23:36:57.847Z,27.73
2022-07-31T23:39:26.386Z,27.73
2022-07-31T23:42:14.473Z,27.72
2022-07-31T23:44:46.182Z,27.70
2022-07-31T23:47:15.795Z,27.67
2022-07-31T23:49:44.697Z,27.68
2022-07-31T23:52:13.332Z,27.67
2022-07-31T23:54:41.799Z,27.67
2022-07-31T23:57:11.767Z,27.65
2022-07-31T23:59:40.263Z,27.60
